Vision — WDF6306 — position and weather

sailwx.info

Track history (hours):
 
Tides and Currents Weather Stations Pressure Air Temp Water Temp Dewpoint Dewpoint Depression Visibility Wind Speed Wind Dir Waves Ship Positions

Vision

Owner: INTREPID SHIP MANAGEMENT, JACKSONVILLE, FL. More information available from US FCC via Universal Licensing System and Coast Guard Vessel Documentation Center.

Last reported at 2017-Feb-20 10:32 UTC. Time now 2017-Feb-20 11:19 UTC.
Position N 48°31' W 122°35'.

Length 199 m; draft 7.3 m.

Type: Towing. MMSI: 366904000.

Date/timePositionNaut miles runAvg speedWind from/ knotsBaromVisibWave heightAir tempDewpointWater temp
2017-Feb-20 10:32N 48°31' W 122°35'0 0.0
2017-Feb-20 09:31N 48°31' W 122°35'0 0.0
2017-Feb-20 08:26N 48°31' W 122°35'0 0.0
2017-Feb-20 07:33N 48°31' W 122°35'0 0.0
2017-Feb-20 06:33N 48°31' W 122°35'0 0.0
2017-Feb-20 05:33N 48°31' W 122°35'0 0.0
2017-Feb-20 04:34N 48°31' W 122°35'0 0.0
2017-Feb-20 03:33N 48°31' W 122°35'0 0.0
2017-Feb-20 02:33N 48°31' W 122°35'0 0.0
2017-Feb-20 01:33N 48°31' W 122°35'0 0.0
2017-Feb-20 00:33N 48°31' W 122°35'0 0.0
2017-Feb-19 23:33N 48°31' W 122°35'0 0.0
2017-Feb-19 22:33N 48°31' W 122°35'0 0.0
2017-Feb-19 21:33N 48°31' W 122°35'0 0.0
2017-Feb-19 20:33N 48°31' W 122°35'0 0.0
2017-Feb-19 19:34N 48°31' W 122°35'0 0.0
2017-Feb-19 18:33N 48°31' W 122°35'0 0.0
2017-Feb-19 17:33N 48°31' W 122°35'0 0.0
2017-Feb-19 16:33N 48°31' W 122°35'0 0.0
2017-Feb-19 15:14N 48°31' W 122°35'0 0.0
2017-Feb-19 14:30N 48°31' W 122°35'0 0.0
2017-Feb-19 13:33N 48°31' W 122°35'0 0.0
2017-Feb-19 12:31N 48°31' W 122°35'0 0.0
2017-Feb-19 11:33N 48°31' W 122°35'0 0.0
2017-Feb-19 10:33N 48°31' W 122°35'0 0.0
2017-Feb-19 09:33N 48°31' W 122°35'4 3.7
2017-Feb-19 08:33N 48°31' W 122°40'1212.1
2017-Feb-19 07:33N 48°22' W 122°52'1312.6
2017-Feb-19 06:33N 48°15' W 123°08'1212.4
2017-Feb-19 05:33N 48°09' W 123°25'8 8.5
2017-Feb-19 04:34N 48°13' W 123°36'8 7.9
2017-Feb-19 03:33N 48°13' W 123°48'8 8.1
2017-Feb-19 02:33N 48°15' W 123°60'9 8.6
2017-Feb-19 01:32N 48°18' W 124°12'9 9.2
2017-Feb-19 00:33N 48°22' W 124°24'115 9.4
2017-Feb-18 12:15N 46°40' W 125°44'811.8
2017-Feb-18 11:33N 46°32' W 125°44'1211.5
2017-Feb-18 10:31N 46°20' W 125°44'1511.1
2017-Feb-18 09:11N 46°06' W 125°43'910.7
2017-Feb-18 08:22N 45°57' W 125°43'910.9
2017-Feb-18 07:32N 45°48' W 125°43'1210.9
2017-Feb-18 06:26N 45°36' W 125°43'1011.1
2017-Feb-18 05:32N 45°26' W 125°44'1111.4
2017-Feb-18 04:33N 45°14' W 125°45'1311.8
2017-Feb-18 03:29N 45°02' W 125°46'2712.3
2017-Feb-18 01:19N 44°35' W 125°48'2511.9
2017-Feb-17 23:13N 44°10' W 125°48'35510.8
2017-Feb-16 14:31N 38°23' W 124°16'9 9.6
2017-Feb-16 13:33N 38°18' W 124°06'10 9.5
2017-Feb-16 12:33N 38°12' W 123°56'10 9.5
2017-Feb-16 11:34N 38°07' W 123°46'1010.0
2017-Feb-16 10:34N 37°59' W 123°37'1110.9
2017-Feb-16 09:33N 37°52' W 123°27'1211.8
2017-Feb-16 08:34N 37°43' W 123°17'1211.6
2017-Feb-16 07:33N 37°35' W 123°06'10 9.6
2017-Feb-16 06:34N 37°39' W 122°55'1211.6
2017-Feb-16 05:34N 37°46' W 122°43'1313.0
2017-Feb-16 04:34N 37°50' W 122°28'5 5.1
2017-Feb-16 03:31N 37°48' W 122°21'0 0.0
2017-Feb-16 02:31N 37°48' W 122°21'0 0.0
2017-Feb-16 01:31N 37°48' W 122°21'0 0.0
2017-Feb-16 00:31N 37°48' W 122°21'0 0.2
2017-Feb-15 23:31N 37°48' W 122°21'0 0.1
2017-Feb-15 22:31N 37°47' W 122°21'0 0.0
2017-Feb-15 21:31N 37°47' W 122°21'0 0.0
2017-Feb-15 20:31N 37°47' W 122°21'0 0.0
2017-Feb-15 19:31N 37°47' W 122°21'0 0.1
2017-Feb-15 18:28N 37°48' W 122°21'0 0.2
2017-Feb-15 17:31N 37°48' W 122°21'0 0.1
2017-Feb-15 16:31N 37°48' W 122°21'0 0.0
2017-Feb-15 15:31N 37°48' W 122°21'0 0.0
2017-Feb-15 14:31N 37°48' W 122°21'0 0.0
2017-Feb-15 13:31N 37°48' W 122°21'0 0.1
2017-Feb-15 12:31N 37°48' W 122°21'0 0.2
2017-Feb-15 11:31N 37°48' W 122°21'0 0.1
2017-Feb-15 10:31N 37°47' W 122°21'0 0.0
2017-Feb-15 09:31N 37°47' W 122°21'0 0.1
2017-Feb-15 08:31N 37°47' W 122°21'0 0.1
2017-Feb-15 07:28N 37°47' W 122°21'0 0.0
2017-Feb-15 06:31N 37°48' W 122°21'0 0.0
2017-Feb-15 05:31N 37°48' W 122°21'0 0.2
2017-Feb-15 04:31N 37°48' W 122°21'0 0.0
2017-Feb-15 03:31N 37°48' W 122°21'0 0.0
2017-Feb-15 02:31N 37°48' W 122°21'0 0.0
2017-Feb-15 01:31N 37°48' W 122°21'0 0.0
2017-Feb-15 00:31N 37°48' W 122°21'0 0.0
2017-Feb-14 23:31N 37°48' W 122°21'0 0.2
2017-Feb-14 22:31N 37°47' W 122°21'0 0.1
2017-Feb-14 21:31N 37°47' W 122°21'0 0.0
2017-Feb-14 20:31N 37°47' W 122°21'0 0.0
2017-Feb-14 19:31N 37°47' W 122°21'0 0.1
2017-Feb-14 18:31N 37°48' W 122°21'0 0.0
2017-Feb-14 17:31N 37°48' W 122°21'0 0.2
2017-Feb-14 16:31N 37°48' W 122°21'0 0.0
2017-Feb-14 15:31N 37°48' W 122°21'0 0.0
2017-Feb-14 14:31N 37°48' W 122°21'0 0.0
2017-Feb-14 13:31N 37°48' W 122°21'0 0.0
2017-Feb-14 12:31N 37°48' W 122°21'0 0.1
2017-Feb-14 11:31N 37°48' W 122°21'0 0.2
2017-Feb-14 10:31N 37°48' W 122°21'0 0.1
2017-Feb-14 09:31N 37°47' W 122°21'0 0.0
2017-Feb-14 08:31N 37°47' W 122°21'0 0.0
2017-Feb-14 07:31N 37°47' W 122°21'0 0.1
2017-Feb-14 06:31N 37°48' W 122°21'0 0.0
2017-Feb-14 05:31N 37°48' W 122°21'0 0.1
2017-Feb-14 04:31N 37°48' W 122°21'0 0.1
2017-Feb-14 03:31N 37°48' W 122°21'0 0.0
2017-Feb-14 02:31N 37°48' W 122°21'0 0.0
2017-Feb-14 01:31N 37°48' W 122°21'0 0.0
2017-Feb-14 00:31N 37°48' W 122°21'0 0.0
2017-Feb-13 23:31N 37°48' W 122°21'0 0.1
2017-Feb-13 22:31N 37°48' W 122°21'0 0.2
2017-Feb-13 21:31N 37°47' W 122°21'0 0.1
2017-Feb-13 20:31N 37°47' W 122°21'0 0.0
2017-Feb-13 19:31N 37°47' W 122°21'0 0.0
2017-Feb-13 18:31N 37°47' W 122°21'0 0.1
2017-Feb-13 17:31N 37°47' W 122°21'6 5.9
2017-Feb-13 16:34N 37°52' W 122°25'1211.9
2017-Feb-13 15:34N 38°03' W 122°19'9 8.5
2017-Feb-13 14:30N 38°02' W 122°08'0 0.0
2017-Feb-13 13:30N 38°02' W 122°08'0 0.0
2017-Feb-13 12:30N 38°02' W 122°08'0 0.0
2017-Feb-13 11:18N 38°02' W 122°08'0 0.0
2017-Feb-13 09:30N 38°02' W 122°08'0 0.0
2017-Feb-13 08:30N 38°02' W 122°08'0 0.0
2017-Feb-13 07:18N 38°02' W 122°08'0 0.0
2017-Feb-13 06:30N 38°02' W 122°08'0 0.0
2017-Feb-13 05:30N 38°02' W 122°08'0 0.0
2017-Feb-13 04:30N 38°02' W 122°08'0 0.0
2017-Feb-13 03:24N 38°02' W 122°08'0 0.0
2017-Feb-13 02:30N 38°02' W 122°08'0 0.0
2017-Feb-13 01:30N 38°02' W 122°08'0 0.0
2017-Feb-12 20:24N 38°02' W 122°08'0 0.0
2017-Feb-12 19:30N 38°02' W 122°08'0 0.0
2017-Feb-12 18:30N 38°02' W 122°08'0 0.0
2017-Feb-12 17:30N 38°02' W 122°08'0 0.0
2017-Feb-12 16:30N 38°02' W 122°08'0 0.0
2017-Feb-12 15:30N 38°02' W 122°08'0 0.0
2017-Feb-12 14:30N 38°02' W 122°08'0 0.4
2017-Feb-12 13:33N 38°02' W 122°08'7 7.4
2017-Feb-12 12:33N 38°03' W 122°17'9 9.0
2017-Feb-12 11:33N 37°58' W 122°27'8 8.1
2017-Feb-12 10:33N 37°50' W 122°24'5 4.8
2017-Feb-12 09:32N 37°46' W 122°21'0 0.0
2017-Feb-12 08:32N 37°46' W 122°21'0 0.0
2017-Feb-12 07:32N 37°46' W 122°21'0 0.0
2017-Feb-12 06:32N 37°46' W 122°21'0 0.1
2017-Feb-12 05:32N 37°46' W 122°21'0 0.1
2017-Feb-12 04:32N 37°46' W 122°21'0 0.1
2017-Feb-12 03:32N 37°46' W 122°21'0 0.2
2017-Feb-12 02:32N 37°46' W 122°21'0 0.0
2017-Feb-12 01:32N 37°46' W 122°21'0 0.0
2017-Feb-12 00:32N 37°46' W 122°21'0 0.0
2017-Feb-11 23:32N 37°46' W 122°21'0 0.0
2017-Feb-11 22:32N 37°46' W 122°21'0 0.0
2017-Feb-11 21:32N 37°46' W 122°21'0 0.2
2017-Feb-11 20:32N 37°46' W 122°21'0 0.1
2017-Feb-11 19:32N 37°46' W 122°21'0 0.0
2017-Feb-11 18:32N 37°46' W 122°21'0 0.0
2017-Feb-11 17:32N 37°46' W 122°21'0 0.0
2017-Feb-11 16:32N 37°46' W 122°21'0 0.1
2017-Feb-11 15:32N 37°46' W 122°21'0 0.2
2017-Feb-11 14:32N 37°46' W 122°21'0 0.1
2017-Feb-11 13:32N 37°46' W 122°21'0 0.0
2017-Feb-11 12:32N 37°46' W 122°21'0 0.0
2017-Feb-11 11:32N 37°46' W 122°21'0 0.0
2017-Feb-11 10:32N 37°46' W 122°21'0 0.2
2017-Feb-11 09:32N 37°46' W 122°21'0 0.2
2017-Feb-11 08:32N 37°46' W 122°21'0 0.0
2017-Feb-11 07:32N 37°46' W 122°21'0 0.0
2017-Feb-11 06:32N 37°46' W 122°21'0 0.0
2017-Feb-11 05:32N 37°46' W 122°21'0 0.0
2017-Feb-11 04:32N 37°46' W 122°21'0 0.1
2017-Feb-11 03:32N 37°46' W 122°21'0 0.1
2017-Feb-11 02:32N 37°46' W 122°21'0 0.1
2017-Feb-11 01:32N 37°46' W 122°21'0 0.1
2017-Feb-11 00:33N 37°46' W 122°21'7 6.6
2017-Feb-10 23:33N 37°49' W 122°29'7 6.9
2017-Feb-10 22:33N 37°46' W 122°36'1010.4
2017-Feb-10 21:33N 37°40' W 122°47'1111.3
2017-Feb-10 20:33N 37°34' W 122°59'1111.4
2017-Feb-10 19:33N 37°32' W 123°13'1212.3
2017-Feb-10 18:33N 37°32' W 123°29'1211.8
2017-Feb-10 17:31N 37°40' W 123°41'1111.6
2017-Feb-10 16:33N 37°48' W 123°51'21 9.0
2017-Feb-10 14:16N 38°01' W 124°11'811.9
2017-Feb-10 13:33N 37°56' W 124°03'1212.1
2017-Feb-10 12:33N 37°48' W 123°51'1212.2
2017-Feb-10 11:33N 37°40' W 123°39'  
Track history (hours):
 
Tides and Currents Weather Stations Pressure Air Temp Water Temp Dewpoint Dewpoint Depression Visibility Wind Speed Wind Dir Waves Ship Positions

Vision

Owner: INTREPID SHIP MANAGEMENT, JACKSONVILLE, FL. More information available from US FCC via Universal Licensing System and Coast Guard Vessel Documentation Center.

Last reported at 2017-Feb-20 10:32 UTC. Time now 2017-Feb-20 11:19 UTC.
Position N 48°31' W 122°35'.

Length 199 m; draft 7.3 m.

Type: Towing. MMSI: 366904000.

Date/timePositionNaut miles runAvg speedWind from/ knotsBaromVisibWave heightAir tempDewpointWater temp
2017-Feb-20 10:32N 48°31' W 122°35'0 0.0
2017-Feb-20 09:31N 48°31' W 122°35'0 0.0
2017-Feb-20 08:26N 48°31' W 122°35'0 0.0
2017-Feb-20 07:33N 48°31' W 122°35'0 0.0
2017-Feb-20 06:33N 48°31' W 122°35'0 0.0
2017-Feb-20 05:33N 48°31' W 122°35'0 0.0
2017-Feb-20 04:34N 48°31' W 122°35'0 0.0
2017-Feb-20 03:33N 48°31' W 122°35'0 0.0
2017-Feb-20 02:33N 48°31' W 122°35'0 0.0
2017-Feb-20 01:33N 48°31' W 122°35'0 0.0
2017-Feb-20 00:33N 48°31' W 122°35'0 0.0
2017-Feb-19 23:33N 48°31' W 122°35'0 0.0
2017-Feb-19 22:33N 48°31' W 122°35'0 0.0
2017-Feb-19 21:33N 48°31' W 122°35'0 0.0
2017-Feb-19 20:33N 48°31' W 122°35'0 0.0
2017-Feb-19 19:34N 48°31' W 122°35'0 0.0
2017-Feb-19 18:33N 48°31' W 122°35'0 0.0
2017-Feb-19 17:33N 48°31' W 122°35'0 0.0
2017-Feb-19 16:33N 48°31' W 122°35'0 0.0
2017-Feb-19 15:14N 48°31' W 122°35'0 0.0
2017-Feb-19 14:30N 48°31' W 122°35'0 0.0
2017-Feb-19 13:33N 48°31' W 122°35'0 0.0
2017-Feb-19 12:31N 48°31' W 122°35'0 0.0
2017-Feb-19 11:33N 48°31' W 122°35'0 0.0
2017-Feb-19 10:33N 48°31' W 122°35'0 0.0
2017-Feb-19 09:33N 48°31' W 122°35'4 3.7
2017-Feb-19 08:33N 48°31' W 122°40'1212.1
2017-Feb-19 07:33N 48°22' W 122°52'1312.6
2017-Feb-19 06:33N 48°15' W 123°08'1212.4
2017-Feb-19 05:33N 48°09' W 123°25'8 8.5
2017-Feb-19 04:34N 48°13' W 123°36'8 7.9
2017-Feb-19 03:33N 48°13' W 123°48'8 8.1
2017-Feb-19 02:33N 48°15' W 123°60'9 8.6
2017-Feb-19 01:32N 48°18' W 124°12'9 9.2
2017-Feb-19 00:33N 48°22' W 124°24'115 9.4
2017-Feb-18 12:15N 46°40' W 125°44'811.8
2017-Feb-18 11:33N 46°32' W 125°44'1211.5
2017-Feb-18 10:31N 46°20' W 125°44'1511.1
2017-Feb-18 09:11N 46°06' W 125°43'910.7
2017-Feb-18 08:22N 45°57' W 125°43'910.9
2017-Feb-18 07:32N 45°48' W 125°43'1210.9
2017-Feb-18 06:26N 45°36' W 125°43'1011.1
2017-Feb-18 05:32N 45°26' W 125°44'1111.4
2017-Feb-18 04:33N 45°14' W 125°45'1311.8
2017-Feb-18 03:29N 45°02' W 125°46'2712.3
2017-Feb-18 01:19N 44°35' W 125°48'2511.9
2017-Feb-17 23:13N 44°10' W 125°48'35510.8
2017-Feb-16 14:31N 38°23' W 124°16'9 9.6
2017-Feb-16 13:33N 38°18' W 124°06'10 9.5
2017-Feb-16 12:33N 38°12' W 123°56'10 9.5
2017-Feb-16 11:34N 38°07' W 123°46'1010.0
2017-Feb-16 10:34N 37°59' W 123°37'1110.9
2017-Feb-16 09:33N 37°52' W 123°27'1211.8
2017-Feb-16 08:34N 37°43' W 123°17'1211.6
2017-Feb-16 07:33N 37°35' W 123°06'10 9.6
2017-Feb-16 06:34N 37°39' W 122°55'1211.6
2017-Feb-16 05:34N 37°46' W 122°43'1313.0
2017-Feb-16 04:34N 37°50' W 122°28'5 5.1
2017-Feb-16 03:31N 37°48' W 122°21'0 0.0
2017-Feb-16 02:31N 37°48' W 122°21'0 0.0
2017-Feb-16 01:31N 37°48' W 122°21'0 0.0
2017-Feb-16 00:31N 37°48' W 122°21'0 0.2
2017-Feb-15 23:31N 37°48' W 122°21'0 0.1
2017-Feb-15 22:31N 37°47' W 122°21'0 0.0
2017-Feb-15 21:31N 37°47' W 122°21'0 0.0
2017-Feb-15 20:31N 37°47' W 122°21'0 0.0
2017-Feb-15 19:31N 37°47' W 122°21'0 0.1
2017-Feb-15 18:28N 37°48' W 122°21'0 0.2
2017-Feb-15 17:31N 37°48' W 122°21'0 0.1
2017-Feb-15 16:31N 37°48' W 122°21'0 0.0
2017-Feb-15 15:31N 37°48' W 122°21'0 0.0
2017-Feb-15 14:31N 37°48' W 122°21'0 0.0
2017-Feb-15 13:31N 37°48' W 122°21'0 0.1
2017-Feb-15 12:31N 37°48' W 122°21'0 0.2
2017-Feb-15 11:31N 37°48' W 122°21'0 0.1
2017-Feb-15 10:31N 37°47' W 122°21'0 0.0
2017-Feb-15 09:31N 37°47' W 122°21'0 0.1
2017-Feb-15 08:31N 37°47' W 122°21'0 0.1
2017-Feb-15 07:28N 37°47' W 122°21'0 0.0
2017-Feb-15 06:31N 37°48' W 122°21'0 0.0
2017-Feb-15 05:31N 37°48' W 122°21'0 0.2
2017-Feb-15 04:31N 37°48' W 122°21'0 0.0
2017-Feb-15 03:31N 37°48' W 122°21'0 0.0
2017-Feb-15 02:31N 37°48' W 122°21'0 0.0
2017-Feb-15 01:31N 37°48' W 122°21'0 0.0
2017-Feb-15 00:31N 37°48' W 122°21'0 0.0
2017-Feb-14 23:31N 37°48' W 122°21'0 0.2
2017-Feb-14 22:31N 37°47' W 122°21'0 0.1
2017-Feb-14 21:31N 37°47' W 122°21'0 0.0
2017-Feb-14 20:31N 37°47' W 122°21'0 0.0
2017-Feb-14 19:31N 37°47' W 122°21'0 0.1
2017-Feb-14 18:31N 37°48' W 122°21'0 0.0
2017-Feb-14 17:31N 37°48' W 122°21'0 0.2
2017-Feb-14 16:31N 37°48' W 122°21'0 0.0
2017-Feb-14 15:31N 37°48' W 122°21'0 0.0
2017-Feb-14 14:31N 37°48' W 122°21'0 0.0
2017-Feb-14 13:31N 37°48' W 122°21'0 0.0
2017-Feb-14 12:31N 37°48' W 122°21'0 0.1
2017-Feb-14 11:31N 37°48' W 122°21'0 0.2
2017-Feb-14 10:31N 37°48' W 122°21'0 0.1
2017-Feb-14 09:31N 37°47' W 122°21'0 0.0
2017-Feb-14 08:31N 37°47' W 122°21'0 0.0
2017-Feb-14 07:31N 37°47' W 122°21'0 0.1
2017-Feb-14 06:31N 37°48' W 122°21'0 0.0
2017-Feb-14 05:31N 37°48' W 122°21'0 0.1
2017-Feb-14 04:31N 37°48' W 122°21'0 0.1
2017-Feb-14 03:31N 37°48' W 122°21'0 0.0
2017-Feb-14 02:31N 37°48' W 122°21'0 0.0
2017-Feb-14 01:31N 37°48' W 122°21'0 0.0
2017-Feb-14 00:31N 37°48' W 122°21'0 0.0
2017-Feb-13 23:31N 37°48' W 122°21'0 0.1
2017-Feb-13 22:31N 37°48' W 122°21'0 0.2
2017-Feb-13 21:31N 37°47' W 122°21'0 0.1
2017-Feb-13 20:31N 37°47' W 122°21'0 0.0
2017-Feb-13 19:31N 37°47' W 122°21'0 0.0
2017-Feb-13 18:31N 37°47' W 122°21'0 0.1
2017-Feb-13 17:31N 37°47' W 122°21'6 5.9
2017-Feb-13 16:34N 37°52' W 122°25'1211.9
2017-Feb-13 15:34N 38°03' W 122°19'9 8.5
2017-Feb-13 14:30N 38°02' W 122°08'0 0.0
2017-Feb-13 13:30N 38°02' W 122°08'0 0.0
2017-Feb-13 12:30N 38°02' W 122°08'0 0.0
2017-Feb-13 11:18N 38°02' W 122°08'0 0.0
2017-Feb-13 09:30N 38°02' W 122°08'0 0.0
2017-Feb-13 08:30N 38°02' W 122°08'0 0.0
2017-Feb-13 07:18N 38°02' W 122°08'0 0.0
2017-Feb-13 06:30N 38°02' W 122°08'0 0.0
2017-Feb-13 05:30N 38°02' W 122°08'0 0.0
2017-Feb-13 04:30N 38°02' W 122°08'0 0.0
2017-Feb-13 03:24N 38°02' W 122°08'0 0.0
2017-Feb-13 02:30N 38°02' W 122°08'0 0.0
2017-Feb-13 01:30N 38°02' W 122°08'0 0.0
2017-Feb-12 20:24N 38°02' W 122°08'0 0.0
2017-Feb-12 19:30N 38°02' W 122°08'0 0.0
2017-Feb-12 18:30N 38°02' W 122°08'0 0.0
2017-Feb-12 17:30N 38°02' W 122°08'0 0.0
2017-Feb-12 16:30N 38°02' W 122°08'0 0.0
2017-Feb-12 15:30N 38°02' W 122°08'0 0.0
2017-Feb-12 14:30N 38°02' W 122°08'0 0.4
2017-Feb-12 13:33N 38°02' W 122°08'7 7.4
2017-Feb-12 12:33N 38°03' W 122°17'9 9.0
2017-Feb-12 11:33N 37°58' W 122°27'8 8.1
2017-Feb-12 10:33N 37°50' W 122°24'5 4.8
2017-Feb-12 09:32N 37°46' W 122°21'0 0.0
2017-Feb-12 08:32N 37°46' W 122°21'0 0.0
2017-Feb-12 07:32N 37°46' W 122°21'0 0.0
2017-Feb-12 06:32N 37°46' W 122°21'0 0.1
2017-Feb-12 05:32N 37°46' W 122°21'0 0.1
2017-Feb-12 04:32N 37°46' W 122°21'0 0.1
2017-Feb-12 03:32N 37°46' W 122°21'0 0.2
2017-Feb-12 02:32N 37°46' W 122°21'0 0.0
2017-Feb-12 01:32N 37°46' W 122°21'0 0.0
2017-Feb-12 00:32N 37°46' W 122°21'0 0.0
2017-Feb-11 23:32N 37°46' W 122°21'0 0.0
2017-Feb-11 22:32N 37°46' W 122°21'0 0.0
2017-Feb-11 21:32N 37°46' W 122°21'0 0.2
2017-Feb-11 20:32N 37°46' W 122°21'0 0.1
2017-Feb-11 19:32N 37°46' W 122°21'0 0.0
2017-Feb-11 18:32N 37°46' W 122°21'0 0.0
2017-Feb-11 17:32N 37°46' W 122°21'0 0.0
2017-Feb-11 16:32N 37°46' W 122°21'0 0.1
2017-Feb-11 15:32N 37°46' W 122°21'0 0.2
2017-Feb-11 14:32N 37°46' W 122°21'0 0.1
2017-Feb-11 13:32N 37°46' W 122°21'0 0.0
2017-Feb-11 12:32N 37°46' W 122°21'0 0.0
2017-Feb-11 11:32N 37°46' W 122°21'0 0.0
2017-Feb-11 10:32N 37°46' W 122°21'0 0.2
2017-Feb-11 09:32N 37°46' W 122°21'0 0.2
2017-Feb-11 08:32N 37°46' W 122°21'0 0.0
2017-Feb-11 07:32N 37°46' W 122°21'0 0.0
2017-Feb-11 06:32N 37°46' W 122°21'0 0.0
2017-Feb-11 05:32N 37°46' W 122°21'0 0.0
2017-Feb-11 04:32N 37°46' W 122°21'0 0.1
2017-Feb-11 03:32N 37°46' W 122°21'0 0.1
2017-Feb-11 02:32N 37°46' W 122°21'0 0.1
2017-Feb-11 01:32N 37°46' W 122°21'0 0.1
2017-Feb-11 00:33N 37°46' W 122°21'7 6.6
2017-Feb-10 23:33N 37°49' W 122°29'7 6.9
2017-Feb-10 22:33N 37°46' W 122°36'1010.4
2017-Feb-10 21:33N 37°40' W 122°47'1111.3
2017-Feb-10 20:33N 37°34' W 122°59'1111.4
2017-Feb-10 19:33N 37°32' W 123°13'1212.3
2017-Feb-10 18:33N 37°32' W 123°29'1211.8
2017-Feb-10 17:31N 37°40' W 123°41'1111.6
2017-Feb-10 16:33N 37°48' W 123°51'21 9.0
2017-Feb-10 14:16N 38°01' W 124°11'811.9
2017-Feb-10 13:33N 37°56' W 124°03'1212.1
2017-Feb-10 12:33N 37°48' W 123°51'1212.2
2017-Feb-10 11:33N 37°40' W 123°39'  

Dump ship's entire track history